This is the latest recevied weather packets stored in our database for station/object PY1LEO-13. If no packets are shown the sender has not sent any weather packets the latest 10 day(s).
| Time | Temp. | Humidity | Pressure | Rain* | Wind** | Luminosity | Snow |
|---|---|---|---|---|---|---|---|
| 1777300409 | 32.22° C | 54% | 1011.6 hPa | - | - | - | - |
| 1777300109 | 31.67° C | 54% | 1011.7 hPa | - | - | - | - |
| 1777299809 | 31.67° C | 56% | 1011.8 hPa | - | - | - | - |
| 1777299509 | 31.67° C | 55% | 1012 hPa | - | - | - | - |
| 1777299209 | 32.78° C | 53% | 1012 hPa | - | - | - | - |
| 1777298909 | 30.56° C | 56% | 1012.1 hPa | - | - | - | - |
| 1777298609 | 30.56° C | 56% | 1012.2 hPa | - | - | - | - |
| 1777298309 | 31.11° C | 55% | 1012.2 hPa | - | - | - | - |
| 1777298009 | 32.22° C | 53% | 1012.3 hPa | - | - | - | - |
| 1777297709 | 31.67° C | 52% | 1012.4 hPa | - | - | - | - |
| 1777297409 | 31.67° C | 53% | 1012.4 hPa | - | - | - | - |
| 1777297109 | 31.11° C | 54% | 1012.4 hPa | - | - | - | - |
| 1777296809 | 30.56° C | 56% | 1012.5 hPa | - | - | - | - |
| 1777296509 | 31.67° C | 54% | 1012.5 hPa | - | - | - | - |
| 1777296209 | 32.22° C | 52% | 1012.5 hPa | - | - | - | - |
| 1777295909 | 32.22° C | 52% | 1012.6 hPa | - | - | - | - |
| 1777295609 | 32.22° C | 51% | 1012.6 hPa | - | - | - | - |
| 1777295309 | 32.22° C | 53% | 1012.6 hPa | - | - | - | - |
| 1777295009 | 32.78° C | 50% | 1012.6 hPa | - | - | - | - |
| 1777294709 | 32.78° C | 51% | 1012.6 hPa | - | - | - | - |
| 1777294409 | 30.56° C | 54% | 1012.7 hPa | - | - | - | - |
| 1777294109 | 31.11° C | 53% | 1012.6 hPa | - | - | - | - |
| 1777293809 | 31.67° C | 53% | 1012.7 hPa | - | - | - | - |
| 1777293509 | 31.11° C | 54% | 1012.8 hPa | - | - | - | - |
| 1777293209 | 30° C | 57% | 1012.8 hPa | - | - | - | - |
* Rain since midnight (hover to see other rain measurements)
** Current wind speed in m/s (hover to see current wind gust speed)